SDF weather

Louisville International Standiford Field
Louisville, Kentucky, United States

Public forecast

Using degrees Fahrenheit for public forecast. Weather courtesy of forecast.io.

Current aviation weather report (METAR) for Louisville International Standiford Field

Retrieved 2019/10/20 22:56 UTC (11 minutes ago):

KSDF 202256Z 18007KT 10SM FEW060 22/12 A2989 RMK AO2 SLP119 T02170117

Aviation forecast (TAF) for Louisville International Standiford Field

Retrieved 2019/10/20 18:22 UTC (5 hours ago):

TAF KSDF 201720Z 2018/2124 VRB04KT P6SM FEW015 BKN060 FM210000 14006KT P6SM BKN090 PROB30 2109/2113 6SM -SHRA FM211300 16011KT 5SM -SHRA VCTS BKN035CB FM211600 18016G27KT 4SM -SHRA VCTS BKN035CB